Time;durP1;ratioP1;P1;durP2;ratioP2;P2;SDS_P1;SDS_P2;PMS_P1;PMS_P2;Temp;Humidity;BMP_temperature;BMP_pressure;BME280_temperature;BME280_humidity;BME280_pressure;Samples;Min_cycle;Max_cycle;Signal;HPM_P1;HPM_P2
2023/09/14 00:01:14;;;;;;;7.80;4.53;;;;;;;25.35;45.36;102405.53;4984196;28;20424;-37
2023/09/14 00:03:41;;;;;;;6.18;3.85;;;;;;;25.35;45.32;102409.09;4984002;28;20077;-37
2023/09/14 00:06:08;;;;;;;8.75;5.13;;;;;;;25.34;45.61;102410.13;4983535;28;20050;-37
2023/09/14 00:08:35;;;;;;;7.22;4.40;;;;;;;25.33;45.53;102408.44;4980920;28;20086;-37
2023/09/14 00:11:03;;;;;;;7.75;4.70;;;;;;;25.31;45.85;102412.31;4979135;28;20400;-37
2023/09/14 00:13:30;;;;;;;6.03;3.80;;;;;;;25.31;45.69;102412.31;4983219;28;20050;-37
2023/09/14 00:15:57;;;;;;;6.63;4.15;;;;;;;25.31;45.69;102412.31;4983940;28;20097;-37
2023/09/14 00:18:24;;;;;;;6.60;4.30;;;;;;;25.30;45.55;102410.63;4981392;28;20066;-37
2023/09/14 00:20:52;;;;;;;7.13;4.38;;;;;;;25.29;45.44;102412.50;4983184;28;20050;-37
2023/09/14 00:23:20;;;;;;;6.72;4.40;;;;;;;25.27;45.79;102411.78;4984995;28;20046;-37
2023/09/14 00:25:48;;;;;;;6.38;3.47;;;;;;;25.27;45.67;102413.66;4983078;28;21768;-37
2023/09/14 00:28:15;;;;;;;6.50;4.00;;;;;;;25.27;45.89;102416.38;4982436;28;20055;-37
2023/09/14 00:30:41;;;;;;;6.72;3.60;;;;;;;25.24;45.81;102406.69;4982955;28;20432;-37
2023/09/14 00:33:08;;;;;;;8.73;3.60;;;;;;;25.24;45.95;102413.97;4981397;28;20047;-37
2023/09/14 00:35:35;;;;;;;6.40;3.60;;;;;;;25.23;45.96;102415.00;4984817;28;20042;-37
2023/09/14 00:38:02;;;;;;;5.80;3.70;;;;;;;25.22;45.90;102408.72;4981526;28;20062;-37
2023/09/14 00:40:28;;;;;;;7.18;3.97;;;;;;;25.21;45.51;102407.03;4982777;28;20105;-37
2023/09/14 00:42:55;;;;;;;8.02;3.70;;;;;;;25.19;45.82;102410.91;4981220;28;20044;-37
2023/09/14 00:45:22;;;;;;;6.35;4.05;;;;;;;25.18;45.62;102409.22;4982640;28;20046;-37
2023/09/14 00:47:52;;;;;;;4.50;3.05;;;;;;;25.16;45.49;102406.66;4982037;28;20050;-37
2023/09/14 00:50:21;;;;;;;4.65;3.42;;;;;;;25.16;45.58;102403.09;4986041;28;20128;-37
2023/09/14 00:52:53;;;;;;;5.53;3.47;;;;;;;25.14;46.03;102402.41;4980962;28;20494;-37
2023/09/14 00:55:20;;;;;;;7.75;3.72;;;;;;;25.15;46.05;102406.81;4985676;28;20137;-37
2023/09/14 00:57:48;;;;;;;4.85;3.10;;;;;;;25.12;45.96;102410.69;4986962;28;20054;-37
2023/09/14 01:00:16;;;;;;;5.15;3.08;;;;;;;25.11;45.82;102412.56;4987587;28;20457;-37
2023/09/14 01:02:44;;;;;;;5.10;3.38;;;;;;;25.11;46.12;102412.56;4984265;28;20091;-37
2023/09/14 01:05:15;;;;;;;6.88;3.63;;;;;;;25.09;46.04;102414.59;4981908;28;20050;-37
2023/09/14 01:07:42;;;;;;;4.30;2.80;;;;;;;25.09;45.66;102417.31;4985492;28;20554;-37
2023/09/14 01:10:15;;;;;;;5.10;3.05;;;;;;;25.08;45.93;102410.13;4985752;28;20140;-37
2023/09/14 01:12:45;;;;;;;5.18;3.03;;;;;;;25.08;45.79;102403.88;4981255;28;20046;-37
2023/09/14 01:15:35;;;;;;;5.28;2.92;;;;;;;25.06;45.80;102404.03;4982427;28;20133;-37
2023/09/14 01:18:13;;;;;;;5.22;3.42;;;;;;;25.06;45.80;102409.47;4987903;28;20058;-37
2023/09/14 01:21:28;;;;;;;5.38;2.92;;;;;;;25.04;45.90;102407.91;4985786;28;20070;-37
2023/09/14 01:23:55;;;;;;;5.28;2.90;;;;;;;25.04;46.20;102406.03;4980116;28;20133;-37
2023/09/14 01:26:23;;;;;;;4.68;2.60;;;;;;;25.04;46.21;102406.03;4988482;28;20419;-37
2023/09/14 01:28:49;;;;;;;5.05;2.90;;;;;;;25.02;45.86;102405.38;4989610;28;20046;-37
2023/09/14 01:31:16;;;;;;;5.25;3.03;;;;;;;25.02;46.21;102416.22;4986864;28;20134;-37
2023/09/14 01:33:48;;;;;;;6.07;3.20;;;;;;;25.00;46.24;102404.66;4985597;28;20057;-37
2023/09/14 01:36:17;;;;;;;4.97;3.17;;;;;;;25.01;45.69;102397.41;4987550;28;20054;-37
2023/09/14 01:38:45;;;;;;;4.88;2.83;;;;;;;25.00;46.25;102403.81;4984717;28;20474;-37
2023/09/14 01:41:14;;;;;;;4.88;2.40;;;;;;;24.99;45.78;102397.56;4980525;28;20139;-37
2023/09/14 01:43:45;;;;;;;4.65;2.97;;;;;;;24.98;45.99;102411.28;4985265;28;20081;-37
2023/09/14 01:46:12;;;;;;;4.93;2.85;;;;;;;24.97;46.32;102399.59;4984966;28;20439;-37
2023/09/14 01:48:39;;;;;;;4.45;2.60;;;;;;;24.96;45.87;102394.31;4987132;28;20104;-37
2023/09/14 01:51:06;;;;;;;6.13;2.40;;;;;;;24.95;45.89;102403.47;4985574;28;20061;-37
2023/09/14 01:53:32;;;;;;;5.07;2.40;;;;;;;24.95;46.26;102389.91;4983455;28;20133;-37
2023/09/14 01:55:59;;;;;;;4.57;2.35;;;;;;;24.93;46.08;102395.50;4982151;28;20042;-37
2023/09/14 01:58:25;;;;;;;5.45;2.75;;;;;;;24.93;46.34;102400.94;4986222;28;20389;-37
2023/09/14 02:00:54;;;;;;;4.45;2.58;;;;;;;24.92;46.13;102401.06;4983536;28;20133;-37
2023/09/14 02:03:21;;;;;;;5.45;2.20;;;;;;;24.90;46.07;102397.69;4984860;28;20141;-37
2023/09/14 02:05:57;;;;;;;5.25;2.50;;;;;;;24.87;45.93;102393.44;4982215;28;20133;-37
2023/09/14 02:08:25;;;;;;;5.00;2.65;;;;;;;24.89;46.22;102399.56;4982878;28;20616;-37
2023/09/14 02:10:52;;;;;;;5.15;2.40;;;;;;;24.87;45.99;102391.56;4982775;28;20093;-37
2023/09/14 02:13:19;;;;;;;4.72;2.88;;;;;;;24.88;46.35;102395.13;4984431;28;20100;-36
2023/09/14 02:15:45;;;;;;;4.75;2.30;;;;;;;24.85;45.89;102388.19;4986159;28;20042;-37
2023/09/14 02:18:12;;;;;;;4.43;2.33;;;;;;;24.85;46.32;102380.03;4983852;28;20244;-37
2023/09/14 02:20:39;;;;;;;6.65;2.35;;;;;;;24.84;46.07;102391.03;4983001;28;20051;-37
2023/09/14 02:23:07;;;;;;;3.50;2.10;;;;;;;24.83;46.23;102386.63;4983524;28;20065;-37
2023/09/14 02:25:34;;;;;;;4.13;2.05;;;;;;;24.82;46.08;102385.78;4984256;28;20049;-37
2023/09/14 02:28:02;;;;;;;4.55;2.30;;;;;;;24.80;46.13;102384.22;4986090;28;20130;-37
2023/09/14 02:30:29;;;;;;;4.90;2.10;;;;;;;24.80;46.15;102387.78;4984803;28;20093;-36
2023/09/14 02:32:55;;;;;;;3.88;2.05;;;;;;;24.79;45.94;102385.25;4987070;28;20108;-37
2023/09/14 02:35:22;;;;;;;3.95;2.50;;;;;;;24.78;46.06;102380.84;4980714;28;20145;-37
2023/09/14 02:37:48;;;;;;;4.50;2.38;;;;;;;24.75;46.37;102373.88;4979416;28;20501;-37
2023/09/14 02:40:15;;;;;;;4.40;2.42;;;;;;;24.75;46.21;102382.00;4984501;28;20616;-37
2023/09/14 02:42:41;;;;;;;3.40;2.22;;;;;;;24.74;46.11;102376.75;5014386;28;20042;-36
2023/09/14 02:45:08;;;;;;;3.60;2.30;;;;;;;24.74;46.34;102379.47;4984160;28;20086;-36
2023/09/14 02:47:35;;;;;;;2.90;2.05;;;;;;;24.72;46.53;102378.75;4980417;28;20407;-37
2023/09/14 02:50:01;;;;;;;4.13;2.15;;;;;;;24.71;46.33;102374.34;4983176;28;20514;-36
2023/09/14 02:52:28;;;;;;;3.30;1.95;;;;;;;24.70;46.64;102378.94;4985257;28;20078;-36
2023/09/14 02:54:54;;;;;;;3.42;1.80;;;;;;;24.70;46.73;102378.09;4988018;28;20169;-36
2023/09/14 02:57:21;;;;;;;4.68;1.90;;;;;;;24.69;46.43;102374.53;4987156;28;20050;-38
2023/09/14 02:59:48;;;;;;;4.90;2.25;;;;;;;24.68;46.48;102383.66;4983428;28;20069;-36
2023/09/14 03:02:14;;;;;;;3.35;1.67;;;;;;;24.67;46.56;102376.53;4982951;28;20376;-36
2023/09/14 03:04:41;;;;;;;3.67;2.10;;;;;;;24.66;46.68;102374.84;4980217;28;20138;-37
2023/09/14 03:07:08;;;;;;;3.55;1.90;;;;;;;24.66;46.11;102376.72;4984635;28;20106;-37
2023/09/14 03:09:34;;;;;;;3.78;2.00;;;;;;;24.64;46.07;102371.44;4979296;28;20046;-37
2023/09/14 03:12:01;;;;;;;3.08;1.92;;;;;;;24.63;46.26;102367.88;4982874;28;20047;-36
2023/09/14 03:14:27;;;;;;;3.35;1.75;;;;;;;24.63;46.63;102369.72;4983534;28;20047;-37
2023/09/14 03:16:54;;;;;;;3.50;1.88;;;;;;;24.62;46.28;102366.19;4985508;28;20042;-37
2023/09/14 03:19:21;;;;;;;4.32;1.92;;;;;;;24.60;46.68;102365.50;4984865;28;20084;-37
2023/09/14 03:21:47;;;;;;;3.55;1.90;;;;;;;24.60;46.44;102368.22;4982651;28;20070;-37
2023/09/14 03:24:14;;;;;;;5.35;2.17;;;;;;;24.60;46.62;102365.50;4982523;28;20129;-36
2023/09/14 03:26:41;;;;;;;5.10;1.90;;;;;;;24.59;46.56;102374.63;4984176;28;20129;-36
2023/09/14 03:29:07;;;;;;;2.90;1.52;;;;;;;24.58;46.09;102372.94;4982870;28;20134;-37
2023/09/14 03:31:37;;;;;;;3.40;1.98;;;;;;;24.58;46.68;102372.94;4979620;28;20112;-36
2023/09/14 03:34:05;;;;;;;3.83;2.10;;;;;;;24.57;46.07;102365.81;4982359;28;20054;-36
2023/09/14 03:36:32;;;;;;;4.22;2.55;;;;;;;24.55;46.72;102367.81;4981976;28;20050;-36
2023/09/14 03:38:59;;;;;;;3.17;1.50;;;;;;;24.54;46.11;102366.13;4980965;28;20727;-37
2023/09/14 03:41:25;;;;;;;3.70;2.00;;;;;;;24.54;46.72;102366.13;4978510;28;20145;-37
2023/09/14 03:43:52;;;;;;;2.42;1.50;;;;;;;24.54;46.78;102371.56;4981096;28;20508;-36
2023/09/14 03:46:18;;;;;;;5.68;1.63;;;;;;;24.52;46.31;102368.16;4983053;28;20356;-37
2023/09/14 03:48:45;;;;;;;2.33;1.70;;;;;;;24.52;46.29;102370.88;4985784;28;20073;-36
2023/09/14 03:51:12;;;;;;;4.22;1.98;;;;;;;24.52;46.80;102367.28;4983391;28;20389;-36
2023/09/14 03:53:39;;;;;;;3.30;1.70;;;;;;;24.51;46.16;102365.59;4982739;28;20078;-36
2023/09/14 03:56:05;;;;;;;2.50;1.58;;;;;;;24.49;46.45;102363.06;4982194;28;20458;-37
2023/09/14 03:58:32;;;;;;;4.32;2.03;;;;;;;24.49;46.35;102373.91;4982632;28;20508;-36
2023/09/14 04:00:59;;;;;;;3.63;1.90;;;;;;;24.48;46.51;102376.75;4980212;28;20117;-36
2023/09/14 04:03:26;;;;;;;5.65;2.13;;;;;;;24.47;46.55;102365.06;4982052;28;20363;-37
2023/09/14 04:05:53;;;;;;;3.58;2.15;;;;;;;24.46;46.82;102370.66;4982042;28;20042;-36
2023/09/14 04:08:22;;;;;;;4.88;1.65;;;;;;;24.45;46.54;102367.09;4979250;28;20666;-36
2023/09/14 04:10:51;;;;;;;2.75;1.40;;;;;;;24.46;46.15;102370.66;4982049;28;20054;-37
2023/09/14 04:13:34;;;;;;;3.85;1.50;;;;;;;24.43;46.80;102370.97;4983175;28;20054;-36
2023/09/14 04:16:03;;;;;;;4.18;1.65;;;;;;;24.43;46.53;102354.69;4980235;28;20153;-37
2023/09/14 04:18:35;;;;;;;3.00;1.80;;;;;;;24.43;46.70;102360.13;4981787;28;20109;-36
2023/09/14 04:21:03;;;;;;;2.85;1.42;;;;;;;24.41;46.37;102359.44;4984151;28;20057;-36
2023/09/14 04:23:29;;;;;;;2.08;1.48;;;;;;;24.41;46.84;102356.72;4983040;28;20214;-36
2023/09/14 04:25:56;;;;;;;2.75;1.63;;;;;;;24.38;46.51;102358.75;4982810;28;20435;-35
2023/09/14 04:28:22;;;;;;;3.50;1.80;;;;;;;24.39;46.91;102359.59;4982613;28;20108;-35
2023/09/14 04:30:52;;;;;;;2.30;1.55;;;;;;;24.37;46.59;102357.00;4983887;28;20096;-35
2023/09/14 04:33:19;;;;;;;2.95;1.90;;;;;;;24.38;46.04;102360.59;4984679;28;20046;-35
2023/09/14 04:35:46;;;;;;;2.40;1.50;;;;;;;24.35;46.52;102363.59;4985754;28;20383;-35
2023/09/14 04:38:13;;;;;;;2.38;1.27;;;;;;;24.35;46.58;102364.44;4985269;28;20105;-35
2023/09/14 04:40:43;;;;;;;3.92;1.38;;;;;;;24.34;46.32;102367.31;4988812;28;20050;-35
2023/09/14 04:43:10;;;;;;;4.00;1.92;;;;;;;24.33;46.37;102363.75;4986054;28;20074;-35
2023/09/14 04:45:37;;;;;;;4.88;1.95;;;;;;;24.31;46.71;102365.75;4984565;28;20161;-35
2023/09/14 04:48:05;;;;;;;5.22;2.47;;;;;;;24.31;46.56;102363.06;4981972;28;20054;-35
2023/09/14 04:50:32;;;;;;;5.93;2.58;;;;;;;24.31;46.44;102365.75;4986619;28;20061;-35
2023/09/14 04:52:59;;;;;;;8.05;3.30;;;;;;;24.30;46.83;102366.78;4985429;28;20054;-35
2023/09/14 04:55:26;;;;;;;7.70;3.75;;;;;;;24.30;47.09;102368.66;4983809;28;20121;-35
2023/09/14 04:57:52;;;;;;;8.38;4.20;;;;;;;24.29;46.94;102366.94;4981775;28;20431;-35
2023/09/14 05:00:19;;;;;;;7.38;4.38;;;;;;;24.29;46.27;102366.94;4985755;28;20059;-35
2023/09/14 05:02:46;;;;;;;9.13;4.38;;;;;;;24.28;46.68;102370.66;4975509;28;20445;-35
2023/09/14 05:05:13;;;;;;;10.57;4.70;;;;;;;24.27;46.41;102369.78;4978394;28;20085;-35
2023/09/14 05:07:41;;;;;;;7.38;4.10;;;;;;;24.27;46.82;102371.66;4986762;28;20058;-35
2023/09/14 05:10:08;;;;;;;7.63;4.50;;;;;;;24.27;46.50;102374.38;4984153;28;20108;-35
2023/09/14 05:12:35;;;;;;;8.75;4.90;;;;;;;24.26;46.34;102372.69;4979829;28;20089;-35
2023/09/14 05:15:02;;;;;;;8.05;4.70;;;;;;;24.25;46.79;102371.84;4980880;28;20061;-35
2023/09/14 05:17:29;;;;;;;10.20;4.68;;;;;;;24.24;46.87;102375.56;4977180;28;20069;-35
2023/09/14 05:19:56;;;;;;;9.50;4.95;;;;;;;24.24;46.44;102369.25;4978277;28;20046;-35
2023/09/14 05:22:25;;;;;;;10.60;5.40;;;;;;;24.24;46.29;102370.13;4983884;28;20456;-36
2023/09/14 05:24:53;;;;;;;9.35;5.07;;;;;;;24.22;46.14;102372.13;4989345;28;20426;-35
2023/09/14 05:27:20;;;;;;;11.07;5.15;;;;;;;24.23;46.14;102367.56;4986788;28;20096;-35
2023/09/14 05:29:47;;;;;;;8.07;4.95;;;;;;;24.22;46.26;102369.44;4988930;28;20054;-35
2023/09/14 05:32:13;;;;;;;7.80;4.50;;;;;;;24.22;46.13;102368.59;4985723;28;20101;-35
2023/09/14 05:34:40;;;;;;;9.95;5.22;;;;;;;24.22;46.85;102372.13;5016641;28;20061;-35
2023/09/14 05:37:07;;;;;;;9.27;4.43;;;;;;;24.22;46.42;102376.72;4984066;28;20046;-35
2023/09/14 05:39:34;;;;;;;8.98;4.55;;;;;;;24.22;46.53;102371.28;4983880;28;20051;-35
2023/09/14 05:42:01;;;;;;;8.40;5.05;;;;;;;24.21;46.65;102377.72;4987951;28;20134;-36
2023/09/14 05:44:27;;;;;;;9.50;5.15;;;;;;;24.21;46.70;102383.16;4982855;28;20113;-35
2023/09/14 05:46:54;;;;;;;7.10;4.03;;;;;;;24.21;46.34;102381.28;4980524;28;20134;-35
2023/09/14 05:49:20;;;;;;;9.45;4.78;;;;;;;24.21;46.26;102381.28;4983915;28;20078;-35
2023/09/14 05:51:47;;;;;;;8.13;4.85;;;;;;;24.21;46.29;102385.84;4980886;28;20066;-35
2023/09/14 05:54:14;;;;;;;9.05;4.80;;;;;;;24.21;46.85;102385.84;4982687;28;20057;-35
2023/09/14 05:56:40;;;;;;;9.40;4.50;;;;;;;24.20;46.42;102387.72;4976822;28;20050;-35
2023/09/14 05:59:07;;;;;;;7.75;4.25;;;;;;;24.20;46.44;102398.56;4982714;28;20079;-35
2023/09/14 06:01:54;;;;;;;6.45;4.32;;;;;;;24.21;46.42;102397.53;4985824;28;20061;-35
2023/09/14 06:04:20;;;;;;;8.95;4.22;;;;;;;24.20;46.71;102395.84;4984562;28;20047;-35
2023/09/14 06:06:47;;;;;;;9.20;4.70;;;;;;;24.21;46.19;102408.38;4983717;28;20046;-35
2023/09/14 06:09:14;;;;;;;9.75;4.65;;;;;;;24.20;46.04;102401.25;5011610;28;20076;-36
2023/09/14 06:11:41;;;;;;;6.85;4.28;;;;;;;24.21;46.76;102396.69;4984630;28;20050;-35
2023/09/14 06:14:08;;;;;;;8.52;4.47;;;;;;;24.21;46.02;102407.53;4985849;28;20050;-36
2023/09/14 06:16:35;;;;;;;13.55;4.85;;;;;;;24.21;46.35;102410.25;4983879;28;20120;-36
2023/09/14 06:19:02;;;;;;;8.73;4.65;;;;;;;24.22;46.47;102410.06;4978587;28;20054;-36
2023/09/14 06:21:29;;;;;;;7.53;4.28;;;;;;;24.23;46.50;102400.09;4980430;28;20069;-36
2023/09/14 06:23:55;;;;;;;9.70;4.35;;;;;;;24.22;46.77;102399.22;4980476;28;20043;-36
2023/09/14 06:26:22;;;;;;;7.07;4.13;;;;;;;24.23;46.03;102400.94;4980303;28;20081;-36
2023/09/14 06:28:48;;;;;;;7.35;3.97;;;;;;;24.25;46.63;102398.09;4977974;28;20054;-35
2023/09/14 06:31:15;;;;;;;7.38;4.07;;;;;;;24.27;46.07;102398.75;4983391;28;20505;-36
2023/09/14 06:33:42;;;;;;;6.57;3.88;;;;;;;24.27;46.73;102405.03;4985958;28;20442;-36
2023/09/14 06:36:08;;;;;;;7.70;4.22;;;;;;;24.28;46.03;102409.47;4983255;28;20054;-36
2023/09/14 06:38:35;;;;;;;7.38;3.92;;;;;;;24.29;46.25;102405.72;4983587;28;20385;-36
2023/09/14 06:41:01;;;;;;;8.30;4.40;;;;;;;24.30;46.08;102402.00;4979982;28;20113;-36
2023/09/14 06:43:28;;;;;;;7.82;3.90;;;;;;;24.31;46.04;102405.56;4982232;28;20106;-36
2023/09/14 06:45:55;;;;;;;6.15;3.58;;;;;;;24.32;46.06;102399.13;4982423;28;20382;-36
2023/09/14 06:48:21;;;;;;;7.97;3.53;;;;;;;24.30;45.75;102391.16;4975581;28;20078;-36
2023/09/14 06:50:48;;;;;;;7.57;3.80;;;;;;;24.30;45.99;102395.75;4982438;28;20446;-36
2023/09/14 06:53:15;;;;;;;6.47;3.40;;;;;;;24.29;45.60;102394.91;4974430;28;20082;-36
2023/09/14 06:55:42;;;;;;;6.60;3.17;;;;;;;24.29;46.12;102397.59;4978169;28;20082;-36
2023/09/14 06:58:09;;;;;;;10.02;3.20;;;;;;;24.29;46.30;102399.47;4979003;28;20342;-36
2023/09/14 07:00:35;;;;;;;7.43;3.47;;;;;;;24.29;46.04;102407.59;4979485;28;20051;-36
2023/09/14 07:03:03;;;;;;;6.03;3.17;;;;;;;24.28;45.89;102400.44;4979349;28;20124;-36
2023/09/14 07:05:30;;;;;;;5.82;3.05;;;;;;;24.27;46.12;102396.06;4984774;28;20461;-36
2023/09/14 07:07:57;;;;;;;6.45;2.85;;;;;;;24.28;45.99;102404.03;4986931;28;20047;-36
2023/09/14 07:10:24;;;;;;;7.57;3.22;;;;;;;24.28;45.97;102400.44;4985212;28;20054;-36
2023/09/14 07:12:51;;;;;;;4.97;2.97;;;;;;;24.27;45.81;102396.91;4985323;28;20050;-36
2023/09/14 07:15:18;;;;;;;8.30;3.35;;;;;;;24.27;46.06;102396.91;4979656;28;20520;-36
2023/09/14 07:17:44;;;;;;;4.85;2.80;;;;;;;24.29;45.71;102391.34;4978628;28;20122;-35
2023/09/14 07:20:12;;;;;;;5.65;2.70;;;;;;;24.28;45.71;102395.91;4977249;28;20047;-36
2023/09/14 07:22:39;;;;;;;3.78;2.78;;;;;;;24.28;45.91;102389.63;4980241;28;20076;-35
2023/09/14 07:25:06;;;;;;;8.13;3.72;;;;;;;24.28;45.44;102382.38;4982982;28;20487;-35
2023/09/14 07:27:33;;;;;;;5.05;2.50;;;;;;;24.29;45.33;102399.47;4979418;28;20047;-35
2023/09/14 07:29:59;;;;;;;7.70;2.67;;;;;;;24.29;45.96;102396.75;4979002;28;20131;-35
2023/09/14 07:32:26;;;;;;;6.28;2.50;;;;;;;24.28;45.66;102401.34;4979297;28;20082;-35
2023/09/14 07:34:57;;;;;;;6.53;2.42;;;;;;;24.27;45.55;102401.47;5011769;28;20070;-35
2023/09/14 07:37:23;;;;;;;8.15;2.45;;;;;;;24.27;45.36;102406.88;4982785;28;20322;-35
2023/09/14 07:39:50;;;;;;;4.50;2.33;;;;;;;24.26;45.63;102416.03;4989885;28;20049;-35
2023/09/14 07:42:17;;;;;;;6.50;2.63;;;;;;;24.24;45.26;102408.06;4984428;28;20058;-35
2023/09/14 07:44:43;;;;;;;5.45;2.58;;;;;;;24.25;45.67;102403.50;4978881;28;20042;-35
2023/09/14 07:47:10;;;;;;;6.38;2.28;;;;;;;24.25;45.28;102403.50;5011927;28;20157;-35
2023/09/14 07:49:36;;;;;;;6.00;2.13;;;;;;;24.24;45.54;102407.19;4978012;28;20051;-35
2023/09/14 07:52:03;;;;;;;5.75;2.30;;;;;;;24.25;45.15;102415.19;5015418;28;20054;-35
2023/09/14 07:54:34;;;;;;;3.63;2.13;;;;;;;24.26;45.50;102413.31;4976918;28;20047;-35
2023/09/14 07:57:01;;;;;;;6.88;2.67;;;;;;;24.26;45.54;102414.16;4981455;28;20434;-36
2023/09/14 07:59:28;;;;;;;4.68;2.00;;;;;;;24.27;45.98;102415.03;4982872;28;20414;-36
2023/09/14 08:01:55;;;;;;;4.82;2.38;;;;;;;24.27;45.59;102429.41;4982501;28;20050;-35
2023/09/14 08:04:21;;;;;;;3.58;2.05;;;;;;;24.28;45.53;102425.72;4984711;28;20109;-35
2023/09/14 08:06:48;;;;;;;3.70;2.25;;;;;;;24.28;45.44;102422.13;4984084;28;20470;-35
2023/09/14 08:09:15;;;;;;;5.03;2.25;;;;;;;24.30;45.59;102429.09;4979459;28;20051;-36
2023/09/14 08:11:42;;;;;;;4.75;2.55;;;;;;;24.31;45.63;102429.94;4987070;28;20042;-35
2023/09/14 08:14:08;;;;;;;5.68;2.20;;;;;;;24.32;45.54;102435.22;4992778;28;20060;-36
2023/09/14 08:16:35;;;;;;;4.47;2.10;;;;;;;24.31;45.49;102429.94;4990415;28;20102;-36
2023/09/14 08:19:02;;;;;;;3.67;1.95;;;;;;;24.33;45.12;102420.66;5010597;28;20486;-36
2023/09/14 08:21:28;;;;;;;4.47;2.33;;;;;;;24.34;45.18;102435.06;4982231;28;20105;-36
2023/09/14 08:23:55;;;;;;;5.25;2.20;;;;;;;24.34;45.69;102424.22;4979620;28;20050;-36
2023/09/14 08:26:22;;;;;;;4.78;2.08;;;;;;;24.35;45.35;102421.34;4980888;28;20055;-36
2023/09/14 08:28:48;;;;;;;4.03;1.77;;;;;;;24.36;45.80;102424.91;4983981;28;20141;-36
2023/09/14 08:31:15;;;;;;;4.30;2.17;;;;;;;24.36;45.47;102420.38;5017294;28;20402;-36
2023/09/14 08:33:42;;;;;;;5.72;2.40;;;;;;;24.38;45.17;102428.34;4982046;28;20054;-35
2023/09/14 08:36:08;;;;;;;7.63;2.28;;;;;;;24.40;45.60;102422.75;5013052;28;20113;-35
2023/09/14 08:38:35;;;;;;;3.72;1.70;;;;;;;24.39;45.83;102424.63;4984328;28;20046;-35
2023/09/14 08:41:10;;;;;;;3.45;1.90;;;;;;;24.41;45.55;102425.34;4984833;28;20058;-35
2023/09/14 08:43:39;;;;;;;6.95;2.17;;;;;;;24.43;45.02;102419.75;4980847;28;20042;-35
2023/09/14 08:46:09;;;;;;;7.53;2.10;;;;;;;24.43;45.18;102417.88;4986972;28;20101;-35
2023/09/14 08:48:39;;;;;;;4.65;2.15;;;;;;;24.44;45.01;102430.41;4985340;28;20324;-35
2023/09/14 08:51:07;;;;;;;8.55;2.35;;;;;;;24.45;45.03;102424.00;4980536;28;20057;-35
2023/09/14 08:53:34;;;;;;;4.88;2.15;;;;;;;24.46;45.41;102422.16;4984222;28;20050;-35
2023/09/14 08:56:01;;;;;;;5.63;1.70;;;;;;;24.47;45.77;102421.13;4978486;28;20137;-35
2023/09/14 08:58:29;;;;;;;6.53;2.10;;;;;;;24.49;45.42;102419.13;4986645;28;20112;-35
2023/09/14 09:00:57;;;;;;;7.05;2.10;;;;;;;24.51;45.32;102423.38;4988188;28;20050;-35
2023/09/14 09:03:23;;;;;;;4.22;1.90;;;;;;;24.53;45.70;102420.50;4983280;28;20105;-35
2023/09/14 09:05:50;;;;;;;3.95;1.70;;;;;;;24.54;45.48;102423.06;4986544;28;20554;-35
2023/09/14 09:08:17;;;;;;;5.13;2.17;;;;;;;24.57;45.39;102420.03;4983523;28;20053;-35
2023/09/14 09:10:44;;;;;;;7.78;1.80;;;;;;;24.59;45.75;102420.72;4980638;28;20097;-35
2023/09/14 09:13:11;;;;;;;7.25;2.53;;;;;;;24.61;45.96;102421.41;4982501;28;20100;-35
2023/09/14 09:15:38;;;;;;;3.13;1.77;;;;;;;24.65;45.43;102423.81;4985145;28;20078;-35
2023/09/14 09:18:09;;;;;;;6.03;1.80;;;;;;;24.68;45.38;102421.63;4991055;28;20117;-36
2023/09/14 09:20:40;;;;;;;4.35;1.80;;;;;;;24.71;45.31;102426.72;4989219;28;20543;-35
2023/09/14 09:23:07;;;;;;;3.70;1.85;;;;;;;24.74;45.49;102425.56;4984256;28;20090;-35
2023/09/14 09:25:45;;;;;;;5.70;2.15;;;;;;;24.78;45.35;102421.53;4982031;28;20053;-35
2023/09/14 09:28:12;;;;;;;7.32;2.45;;;;;;;24.82;45.45;102417.47;4983312;28;20125;-35
2023/09/14 09:30:39;;;;;;;5.80;2.08;;;;;;;24.85;45.63;102418.00;4982254;28;20442;-35
2023/09/14 09:33:06;;;;;;;4.63;1.92;;;;;;;24.90;45.19;102412.09;4983978;28;20063;-42
2023/09/14 09:35:37;;;;;;;4.88;1.90;;;;;;;24.95;44.94;102412.47;4984113;28;20452;-36
2023/09/14 09:38:14;;;;;;;4.38;1.67;;;;;;;24.99;45.25;102412.97;4981319;28;20135;-36
2023/09/14 09:40:43;;;;;;;5.95;1.65;;;;;;;25.03;45.37;102409.78;4981536;28;20062;-36
2023/09/14 09:43:18;;;;;;;4.88;1.80;;;;;;;25.08;44.95;102406.56;4984211;28;20469;-35
2023/09/14 09:45:46;;;;;;;5.60;1.90;;;;;;;25.15;44.80;102407.66;4984032;28;20056;-36
2023/09/14 09:48:13;;;;;;;5.18;2.28;;;;;;;25.21;45.16;102408.91;4984597;28;20126;-36
2023/09/14 09:50:40;;;;;;;6.60;2.05;;;;;;;25.25;45.08;102402.13;4988755;28;20053;-36
2023/09/14 09:53:12;;;;;;;5.15;1.80;;;;;;;25.28;44.96;102408.06;4986951;28;20066;-36
2023/09/14 09:55:39;;;;;;;5.05;2.30;;;;;;;25.33;45.15;102400.28;4983753;28;20145;-36
2023/09/14 09:58:07;;;;;;;4.40;1.67;;;;;;;25.39;44.66;102412.34;4982899;28;20055;-36
2023/09/14 10:00:39;;;;;;;4.53;1.90;;;;;;;25.41;45.14;102402.19;4982326;28;20414;-36
2023/09/14 10:03:06;;;;;;;5.55;2.20;;;;;;;25.44;45.08;102401.81;5012598;28;20145;-36
2023/09/14 10:05:38;;;;;;;6.18;2.35;;;;;;;25.48;44.96;102407.78;4980750;28;20050;-36
2023/09/14 10:08:14;;;;;;;4.95;1.60;;;;;;;25.50;44.63;102403.91;4983387;28;20431;-36
2023/09/14 10:10:50;;;;;;;4.78;1.52;;;;;;;25.54;44.25;102399.00;4981087;28;20051;-37
2023/09/14 10:13:24;;;;;;;3.42;1.83;;;;;;;25.58;44.56;102398.47;4985916;28;20061;-37
2023/09/14 10:15:53;;;;;;;2.58;1.65;;;;;;;25.63;44.45;102399.84;4983981;28;20122;-36
2023/09/14 10:18:21;;;;;;;3.22;1.52;;;;;;;25.67;44.50;102396.63;4982652;28;20077;-36
2023/09/14 10:20:52;;;;;;;3.42;1.50;;;;;;;25.71;44.28;102397.16;4984730;28;20104;-36
2023/09/14 10:23:21;;;;;;;4.57;1.77;;;;;;;25.74;44.42;102400.38;4981920;28;20286;-36
2023/09/14 10:25:50;;;;;;;7.35;1.92;;;;;;;25.77;44.31;102401.91;4979635;28;20046;-36
2023/09/14 10:28:20;;;;;;;4.82;1.88;;;;;;;25.79;44.10;102403.47;4982550;28;20057;-37
2023/09/14 10:30:48;;;;;;;5.78;1.80;;;;;;;25.82;44.02;102405.00;4986402;28;20054;-36
2023/09/14 10:33:17;;;;;;;5.05;1.98;;;;;;;25.86;43.65;102394.66;4977906;28;20141;-36
2023/09/14 10:35:44;;;;;;;5.55;1.88;;;;;;;25.88;43.71;102393.47;4984538;28;20050;-36
2023/09/14 10:38:12;;;;;;;6.60;2.25;;;;;;;25.92;43.65;102391.25;4978658;28;20140;-36
2023/09/14 10:40:41;;;;;;;3.67;1.55;;;;;;;25.95;43.66;102389.06;4976958;28;20423;-36
2023/09/14 10:43:08;;;;;;;3.20;1.40;;;;;;;25.98;43.17;102383.28;4983315;28;20050;-36
2023/09/14 10:45:37;;;;;;;5.22;2.17;;;;;;;26.00;43.36;102383.97;4982690;28;20070;-36
2023/09/14 10:48:08;;;;;;;5.80;1.70;;;;;;;26.00;43.26;102381.25;4978297;28;20066;-36
2023/09/14 10:50:35;;;;;;;5.07;1.70;;;;;;;25.99;43.39;102379.56;4984023;28;20133;-36
2023/09/14 10:53:02;;;;;;;3.50;1.63;;;;;;;25.97;43.24;102376.16;5014231;28;20058;-36
2023/09/14 10:55:30;;;;;;;4.53;1.98;;;;;;;25.97;43.14;102373.44;4976298;28;20058;-37
2023/09/14 10:57:57;;;;;;;5.50;2.00;;;;;;;25.97;42.85;102378.88;4980409;28;20050;-37
2023/09/14 11:00:42;;;;;;;4.28;2.05;;;;;;;25.96;42.63;102376.31;4983743;28;20054;-37
2023/09/14 11:03:22;;;;;;;5.70;1.90;;;;;;;25.99;42.70;102376.84;4981853;28;20524;-37
2023/09/14 11:05:53;;;;;;;5.55;1.95;;;;;;;26.00;42.54;102367.66;4980357;28;20137;-37
2023/09/14 11:08:26;;;;;;;4.43;1.70;;;;;;;26.01;42.57;102366.66;4980824;28;20049;-37
2023/09/14 11:10:59;;;;;;;2.40;1.48;;;;;;;26.04;42.26;102369.00;4979335;28;20081;-37
2023/09/14 11:13:33;;;;;;;4.78;2.10;;;;;;;26.06;42.38;102364.28;4982375;28;20050;-37
2023/09/14 11:16:10;;;;;;;5.68;1.88;;;;;;;26.07;42.52;102362.41;4986915;28;20781;-37
2023/09/14 11:18:43;;;;;;;3.65;1.67;;;;;;;26.08;42.28;102359.50;4987068;28;20047;-37
2023/09/14 11:21:32;;;;;;;6.22;2.53;;;;;;;26.09;42.31;102354.91;4985388;28;20092;-37
2023/09/14 11:24:02;;;;;;;2.42;1.25;;;;;;;26.13;42.59;102360.84;4980501;28;20346;-37
2023/09/14 11:26:33;;;;;;;3.53;1.85;;;;;;;26.14;42.36;102354.44;4982072;28;20058;-37
2023/09/14 11:29:04;;;;;;;4.07;1.80;;;;;;;26.15;42.51;102353.41;4978172;28;20046;-37